sensor_id;sensor_type;location;lat;lon;timestamp;pressure;altitude;pressure_sealevel;temperature;humidity
65384;BME280;51986;52.788;41.368;2022-08-30T00:01:59;98961.13;;;20.22;58.61
65384;BME280;51986;52.788;41.368;2022-08-30T00:04:26;98959.16;;;20.23;58.41
65384;BME280;51986;52.788;41.368;2022-08-30T00:06:53;98946.69;;;20.20;58.36
65384;BME280;51986;52.788;41.368;2022-08-30T00:09:20;98958.44;;;20.22;58.15
65384;BME280;51986;52.788;41.368;2022-08-30T00:11:47;98953.03;;;20.02;58.33
65384;BME280;51986;52.788;41.368;2022-08-30T00:14:14;98948.75;;;20.10;59.05
65384;BME280;51986;52.788;41.368;2022-08-30T00:16:41;98959.19;;;20.08;58.45
65384;BME280;51986;52.788;41.368;2022-08-30T00:19:11;98952.56;;;20.04;59.05
65384;BME280;51986;52.788;41.368;2022-08-30T00:21:38;98970.94;;;19.96;59.47
65384;BME280;51986;52.788;41.368;2022-08-30T00:24:05;98937.31;;;19.80;59.19
65384;BME280;51986;52.788;41.368;2022-08-30T00:26:32;98951.47;;;19.81;59.12
65384;BME280;51986;52.788;41.368;2022-08-30T00:28:58;98958.66;;;19.74;59.98
65384;BME280;51986;52.788;41.368;2022-08-30T00:31:27;98947.47;;;19.61;59.81
65384;BME280;51986;52.788;41.368;2022-08-30T00:33:54;98954.03;;;19.60;59.89
65384;BME280;51986;52.788;41.368;2022-08-30T00:36:21;98956.53;;;19.49;60.14
65384;BME280;51986;52.788;41.368;2022-08-30T00:38:48;98956.31;;;19.38;60.45
65384;BME280;51986;52.788;41.368;2022-08-30T00:41:15;98973.09;;;19.38;60.81
65384;BME280;51986;52.788;41.368;2022-08-30T00:43:42;98960.44;;;19.24;60.64
65384;BME280;51986;52.788;41.368;2022-08-30T00:46:09;98963.69;;;19.28;60.83
65384;BME280;51986;52.788;41.368;2022-08-30T00:48:42;98975.75;;;19.23;60.66
65384;BME280;51986;52.788;41.368;2022-08-30T00:51:12;98967.34;;;19.16;61.24
65384;BME280;51986;52.788;41.368;2022-08-30T00:53:41;98962.44;;;19.14;61.24
65384;BME280;51986;52.788;41.368;2022-08-30T00:56:10;98963.72;;;19.04;61.38
65384;BME280;51986;52.788;41.368;2022-08-30T00:58:41;98981.78;;;19.09;61.52
65384;BME280;51986;52.788;41.368;2022-08-30T01:01:10;98979.00;;;19.04;61.41
65384;BME280;51986;52.788;41.368;2022-08-30T01:03:38;98980.63;;;19.10;61.41
65384;BME280;51986;52.788;41.368;2022-08-30T01:06:05;98989.13;;;18.99;61.52
65384;BME280;51986;52.788;41.368;2022-08-30T01:08:33;98968.97;;;18.98;61.75
65384;BME280;51986;52.788;41.368;2022-08-30T01:11:01;98987.50;;;19.02;61.80
65384;BME280;51986;52.788;41.368;2022-08-30T01:13:28;98958.59;;;18.91;61.46
65384;BME280;51986;52.788;41.368;2022-08-30T01:15:55;98973.41;;;19.02;61.41
65384;BME280;51986;52.788;41.368;2022-08-30T01:18:24;98957.56;;;18.89;61.85
65384;BME280;51986;52.788;41.368;2022-08-30T01:23:47;98957.84;;;18.91;61.67
65384;BME280;51986;52.788;41.368;2022-08-30T01:26:15;98954.94;;;18.80;61.75
65384;BME280;51986;52.788;41.368;2022-08-30T01:28:52;98963.31;;;18.72;61.93
65384;BME280;51986;52.788;41.368;2022-08-30T01:31:20;98966.09;;;18.78;61.98
65384;BME280;51986;52.788;41.368;2022-08-30T01:33:48;98956.47;;;18.71;62.33
65384;BME280;51986;52.788;41.368;2022-08-30T01:36:15;98957.66;;;18.70;62.30
65384;BME280;51986;52.788;41.368;2022-08-30T01:38:52;98952.38;;;18.61;62.25
65384;BME280;51986;52.788;41.368;2022-08-30T01:41:23;98976.25;;;18.65;62.09
65384;BME280;51986;52.788;41.368;2022-08-30T01:43:52;98963.53;;;18.60;62.77
65384;BME280;51986;52.788;41.368;2022-08-30T01:46:23;98972.91;;;18.55;63.10
65384;BME280;51986;52.788;41.368;2022-08-30T01:48:52;98969.41;;;18.40;63.26
65384;BME280;51986;52.788;41.368;2022-08-30T01:51:22;98978.78;;;18.35;64.00
65384;BME280;51986;52.788;41.368;2022-08-30T01:53:50;98988.56;;;18.38;63.59
65384;BME280;51986;52.788;41.368;2022-08-30T01:56:17;98980.09;;;18.40;63.38
65384;BME280;51986;52.788;41.368;2022-08-30T01:58:45;98977.63;;;18.27;64.06
65384;BME280;51986;52.788;41.368;2022-08-30T02:01:14;99001.78;;;18.33;63.48
65384;BME280;51986;52.788;41.368;2022-08-30T02:03:43;98976.44;;;18.28;63.70
65384;BME280;51986;52.788;41.368;2022-08-30T02:06:13;98976.56;;;18.34;63.72
65384;BME280;51986;52.788;41.368;2022-08-30T02:08:41;98970.53;;;18.24;63.67
65384;BME280;51986;52.788;41.368;2022-08-30T02:11:10;98981.50;;;18.26;64.35
65384;BME280;51986;52.788;41.368;2022-08-30T02:13:38;98984.63;;;18.25;64.67
65384;BME280;51986;52.788;41.368;2022-08-30T02:16:11;98976.63;;;18.25;64.38
65384;BME280;51986;52.788;41.368;2022-08-30T02:18:39;98981.34;;;18.30;64.31
65384;BME280;51986;52.788;41.368;2022-08-30T02:21:07;98989.63;;;18.32;64.12
65384;BME280;51986;52.788;41.368;2022-08-30T02:23:34;98989.34;;;18.30;63.75
65384;BME280;51986;52.788;41.368;2022-08-30T02:26:02;98977.94;;;18.29;63.89
65384;BME280;51986;52.788;41.368;2022-08-30T02:28:29;99021.91;;;18.43;63.82
65384;BME280;51986;52.788;41.368;2022-08-30T02:30:56;99001.75;;;18.42;63.88
65384;BME280;51986;52.788;41.368;2022-08-30T02:33:23;98998.91;;;18.45;63.17
65384;BME280;51986;52.788;41.368;2022-08-30T02:35:50;98990.91;;;18.45;63.67
65384;BME280;51986;52.788;41.368;2022-08-30T02:38:17;98989.09;;;18.52;63.09
65384;BME280;51986;52.788;41.368;2022-08-30T02:40:45;98997.97;;;18.58;63.30
65384;BME280;51986;52.788;41.368;2022-08-30T02:43:13;99009.22;;;18.62;62.85
65384;BME280;51986;52.788;41.368;2022-08-30T02:45:40;98983.94;;;18.48;62.82
65384;BME280;51986;52.788;41.368;2022-08-30T02:48:08;98999.56;;;18.64;62.36
65384;BME280;51986;52.788;41.368;2022-08-30T02:50:42;99004.44;;;18.66;62.89
65384;BME280;51986;52.788;41.368;2022-08-30T02:53:12;99029.50;;;18.78;62.11
65384;BME280;51986;52.788;41.368;2022-08-30T02:55:42;99020.31;;;18.69;62.10
65384;BME280;51986;52.788;41.368;2022-08-30T02:58:09;99016.69;;;18.58;62.80
65384;BME280;51986;52.788;41.368;2022-08-30T03:00:37;99076.22;;;18.49;62.54
65384;BME280;51986;52.788;41.368;2022-08-30T03:03:04;99016.84;;;18.54;62.31
65384;BME280;51986;52.788;41.368;2022-08-30T03:05:32;99002.91;;;18.50;62.18
65384;BME280;51986;52.788;41.368;2022-08-30T03:07:59;99014.97;;;18.69;61.78
65384;BME280;51986;52.788;41.368;2022-08-30T03:10:27;99019.28;;;19.00;61.01
65384;BME280;51986;52.788;41.368;2022-08-30T03:12:54;99037.72;;;19.61;58.94
65384;BME280;51986;52.788;41.368;2022-08-30T03:15:22;99033.53;;;20.13;57.19
65384;BME280;51986;52.788;41.368;2022-08-30T03:17:50;99021.53;;;20.59;55.46
65384;BME280;51986;52.788;41.368;2022-08-30T03:20:18;99027.44;;;20.98;54.89
65384;BME280;51986;52.788;41.368;2022-08-30T03:22:45;99027.00;;;21.25;53.69
65384;BME280;51986;52.788;41.368;2022-08-30T03:25:13;99029.09;;;21.83;51.94
65384;BME280;51986;52.788;41.368;2022-08-30T03:27:42;99026.06;;;22.01;51.09
65384;BME280;51986;52.788;41.368;2022-08-30T03:30:10;99040.78;;;22.37;50.15
65384;BME280;51986;52.788;41.368;2022-08-30T03:32:37;99038.09;;;22.74;49.01
65384;BME280;51986;52.788;41.368;2022-08-30T03:35:05;99044.47;;;23.31;47.58
65384;BME280;51986;52.788;41.368;2022-08-30T03:37:32;99028.88;;;23.52;46.83
65384;BME280;51986;52.788;41.368;2022-08-30T03:39:59;99030.16;;;23.90;46.21
65384;BME280;51986;52.788;41.368;2022-08-30T03:42:27;99035.31;;;24.27;45.08
65384;BME280;51986;52.788;41.368;2022-08-30T03:44:54;99028.38;;;24.71;44.12
65384;BME280;51986;52.788;41.368;2022-08-30T03:47:31;99028.28;;;24.99;43.80
65384;BME280;51986;52.788;41.368;2022-08-30T03:49:58;99031.69;;;25.11;42.96
65384;BME280;51986;52.788;41.368;2022-08-30T03:52:26;99031.84;;;25.30;42.67
65384;BME280;51986;52.788;41.368;2022-08-30T03:54:53;99031.84;;;25.71;41.78
65384;BME280;51986;52.788;41.368;2022-08-30T03:57:20;99000.63;;;25.76;41.40
65384;BME280;51986;52.788;41.368;2022-08-30T03:59:50;99022.34;;;25.95;41.06
65384;BME280;51986;52.788;41.368;2022-08-30T04:02:18;99052.31;;;25.97;41.29
65384;BME280;51986;52.788;41.368;2022-08-30T04:04:45;99020.97;;;26.12;40.27
65384;BME280;51986;52.788;41.368;2022-08-30T04:07:12;99023.38;;;26.22;40.32
65384;BME280;51986;52.788;41.368;2022-08-30T04:09:39;99025.28;;;26.27;40.41
65384;BME280;51986;52.788;41.368;2022-08-30T04:12:06;99022.06;;;26.28;39.88
65384;BME280;51986;52.788;41.368;2022-08-30T04:14:33;99032.97;;;26.47;39.45
65384;BME280;51986;52.788;41.368;2022-08-30T04:17:00;99020.56;;;26.33;39.86
65384;BME280;51986;52.788;41.368;2022-08-30T04:19:27;99045.53;;;26.45;39.60
65384;BME280;51986;52.788;41.368;2022-08-30T04:21:54;99027.13;;;26.43;39.54
65384;BME280;51986;52.788;41.368;2022-08-30T04:24:22;99011.16;;;26.40;39.81
65384;BME280;51986;52.788;41.368;2022-08-30T04:26:48;99040.53;;;26.30;39.82
65384;BME280;51986;52.788;41.368;2022-08-30T04:29:15;99049.00;;;26.09;40.40
65384;BME280;51986;52.788;41.368;2022-08-30T04:31:43;99011.84;;;26.21;39.94
65384;BME280;51986;52.788;41.368;2022-08-30T04:34:11;99041.19;;;26.06;40.12
65384;BME280;51986;52.788;41.368;2022-08-30T04:36:38;99049.31;;;26.06;40.30
65384;BME280;51986;52.788;41.368;2022-08-30T04:39:06;99036.81;;;25.67;40.61
65384;BME280;51986;52.788;41.368;2022-08-30T04:41:35;99050.97;;;25.79;40.73
65384;BME280;51986;52.788;41.368;2022-08-30T04:44:02;99038.59;;;25.53;41.33
65384;BME280;51986;52.788;41.368;2022-08-30T04:46:29;99037.13;;;25.52;41.39
65384;BME280;51986;52.788;41.368;2022-08-30T04:48:56;99050.63;;;25.47;41.58
65384;BME280;51986;52.788;41.368;2022-08-30T04:51:23;99025.00;;;25.23;41.75
65384;BME280;51986;52.788;41.368;2022-08-30T04:53:50;99029.94;;;25.14;42.16
65384;BME280;51986;52.788;41.368;2022-08-30T04:56:20;99026.28;;;25.11;42.09
65384;BME280;51986;52.788;41.368;2022-08-30T04:58:49;99037.88;;;24.89;42.64
65384;BME280;51986;52.788;41.368;2022-08-30T05:01:25;99039.38;;;24.90;42.31
65384;BME280;51986;52.788;41.368;2022-08-30T05:03:54;99057.53;;;24.95;42.31
65384;BME280;51986;52.788;41.368;2022-08-30T05:06:22;99037.84;;;25.06;41.97
65384;BME280;51986;52.788;41.368;2022-08-30T05:08:49;99059.47;;;25.00;42.02
65384;BME280;51986;52.788;41.368;2022-08-30T05:11:16;99047.34;;;25.24;41.99
65384;BME280;51986;52.788;41.368;2022-08-30T05:13:43;99025.81;;;25.07;42.30
65384;BME280;51986;52.788;41.368;2022-08-30T05:16:11;99038.84;;;25.50;41.53
65384;BME280;51986;52.788;41.368;2022-08-30T05:18:38;99023.34;;;25.56;41.06
65384;BME280;51986;52.788;41.368;2022-08-30T05:21:08;99044.19;;;25.61;41.08
65384;BME280;51986;52.788;41.368;2022-08-30T05:23:37;99033.09;;;25.70;41.31
65384;BME280;51986;52.788;41.368;2022-08-30T05:26:07;99042.41;;;25.75;40.87
65384;BME280;51986;52.788;41.368;2022-08-30T05:28:34;99037.47;;;25.79;41.32
65384;BME280;51986;52.788;41.368;2022-08-30T05:31:02;99024.84;;;25.93;41.07
65384;BME280;51986;52.788;41.368;2022-08-30T05:33:29;99033.94;;;25.90;40.83
65384;BME280;51986;52.788;41.368;2022-08-30T05:35:55;99028.84;;;25.80;40.90
65384;BME280;51986;52.788;41.368;2022-08-30T05:38:22;99034.63;;;25.96;40.30
65384;BME280;51986;52.788;41.368;2022-08-30T05:40:52;99046.59;;;26.06;40.71
65384;BME280;51986;52.788;41.368;2022-08-30T05:43:20;99036.91;;;26.16;40.03
65384;BME280;51986;52.788;41.368;2022-08-30T05:46:07;99011.84;;;26.21;39.82
65384;BME280;51986;52.788;41.368;2022-08-30T05:48:35;99044.28;;;26.21;39.57
65384;BME280;51986;52.788;41.368;2022-08-30T05:51:11;99030.78;;;26.46;39.85
65384;BME280;51986;52.788;41.368;2022-08-30T05:53:40;99033.00;;;26.66;39.28
65384;BME280;51986;52.788;41.368;2022-08-30T05:56:10;99019.78;;;26.62;39.58
65384;BME280;51986;52.788;41.368;2022-08-30T05:58:37;99027.38;;;26.64;39.39
65384;BME280;51986;52.788;41.368;2022-08-30T06:01:05;99036.00;;;26.87;38.53
65384;BME280;51986;52.788;41.368;2022-08-30T06:03:32;99034.03;;;26.87;38.40
65384;BME280;51986;52.788;41.368;2022-08-30T06:05:59;99036.00;;;26.87;38.93
65384;BME280;51986;52.788;41.368;2022-08-30T06:08:27;99050.72;;;26.92;38.63
65384;BME280;51986;52.788;41.368;2022-08-30T06:10:54;99037.91;;;26.92;38.84
65384;BME280;51986;52.788;41.368;2022-08-30T06:13:21;99045.06;;;26.90;38.58
65384;BME280;51986;52.788;41.368;2022-08-30T06:15:47;99009.78;;;27.01;38.36
65384;BME280;51986;52.788;41.368;2022-08-30T06:18:15;99036.97;;;27.08;38.22
65384;BME280;51986;52.788;41.368;2022-08-30T06:20:43;99033.19;;;27.17;38.01
65384;BME280;51986;52.788;41.368;2022-08-30T06:23:16;99037.34;;;27.37;38.17
65384;BME280;51986;52.788;41.368;2022-08-30T06:25:43;99019.75;;;27.44;37.92
65384;BME280;51986;52.788;41.368;2022-08-30T06:28:10;99036.91;;;27.33;38.45
65384;BME280;51986;52.788;41.368;2022-08-30T06:30:40;99031.19;;;27.36;37.65
65384;BME280;51986;52.788;41.368;2022-08-30T06:33:08;99029.44;;;27.39;37.80
65384;BME280;51986;52.788;41.368;2022-08-30T06:35:36;99029.44;;;27.58;37.55
65384;BME280;51986;52.788;41.368;2022-08-30T06:38:22;99036.00;;;27.44;38.09
65384;BME280;51986;52.788;41.368;2022-08-30T06:40:49;99045.53;;;27.31;38.11
65384;BME280;51986;52.788;41.368;2022-08-30T06:43:24;99038.31;;;27.39;37.79
65384;BME280;51986;52.788;41.368;2022-08-30T06:45:52;99048.63;;;27.41;37.17
65384;BME280;51986;52.788;41.368;2022-08-30T06:48:19;99045.84;;;27.47;37.02
65384;BME280;51986;52.788;41.368;2022-08-30T06:50:52;99030.59;;;27.44;37.43
65384;BME280;51986;52.788;41.368;2022-08-30T06:53:20;99038.00;;;27.62;36.56
65384;BME280;51986;52.788;41.368;2022-08-30T06:55:59;99031.75;;;27.67;36.44
65384;BME280;51986;52.788;41.368;2022-08-30T06:58:27;99031.28;;;27.82;36.26
65384;BME280;51986;52.788;41.368;2022-08-30T07:00:55;99007.66;;;27.82;35.77
65384;BME280;51986;52.788;41.368;2022-08-30T07:03:23;99020.13;;;28.18;34.85
65384;BME280;51986;52.788;41.368;2022-08-30T07:05:50;99033.09;;;27.93;35.23
65384;BME280;51986;52.788;41.368;2022-08-30T07:08:17;99017.53;;;28.12;35.37
65384;BME280;51986;52.788;41.368;2022-08-30T07:10:46;99030.16;;;28.36;35.07
65384;BME280;51986;52.788;41.368;2022-08-30T07:13:16;99020.06;;;28.50;34.93
65384;BME280;51986;52.788;41.368;2022-08-30T07:15:44;99021.84;;;28.74;34.66
65384;BME280;51986;52.788;41.368;2022-08-30T07:18:13;99011.69;;;28.61;34.12
65384;BME280;51986;52.788;41.368;2022-08-30T07:20:40;99019.41;;;28.57;34.05
65384;BME280;51986;52.788;41.368;2022-08-30T07:26:13;99008.47;;;28.76;33.64
65384;BME280;51986;52.788;41.368;2022-08-30T07:28:43;99002.09;;;28.60;34.08
65384;BME280;51986;52.788;41.368;2022-08-30T07:31:12;99024.66;;;28.68;33.61
65384;BME280;51986;52.788;41.368;2022-08-30T07:33:39;99020.78;;;28.77;33.51
65384;BME280;51986;52.788;41.368;2022-08-30T07:36:08;99019.81;;;29.01;33.75
65384;BME280;51986;52.788;41.368;2022-08-30T07:38:35;99010.63;;;29.04;33.43
65384;BME280;51986;52.788;41.368;2022-08-30T07:41:05;99032.75;;;29.08;32.22
65384;BME280;51986;52.788;41.368;2022-08-30T07:43:33;99010.63;;;29.04;32.27
65384;BME280;51986;52.788;41.368;2022-08-30T07:46:05;99008.59;;;29.17;32.77
65384;BME280;51986;52.788;41.368;2022-08-30T07:48:34;99017.78;;;29.28;32.22
65384;BME280;51986;52.788;41.368;2022-08-30T07:51:02;99018.81;;;29.25;31.02
65384;BME280;51986;52.788;41.368;2022-08-30T07:53:33;99027.66;;;29.38;30.55
65384;BME280;51986;52.788;41.368;2022-08-30T07:56:04;99016.75;;;29.17;30.92
65384;BME280;51986;52.788;41.368;2022-08-30T07:58:32;99015.59;;;29.13;31.29
65384;BME280;51986;52.788;41.368;2022-08-30T08:00:59;99010.16;;;29.26;31.13
65384;BME280;51986;52.788;41.368;2022-08-30T08:03:27;98985.00;;;29.47;31.46
65384;BME280;51986;52.788;41.368;2022-08-30T08:05:57;99001.03;;;29.58;29.88
65384;BME280;51986;52.788;41.368;2022-08-30T08:08:24;99003.97;;;29.60;30.51
65384;BME280;51986;52.788;41.368;2022-08-30T08:10:51;99001.88;;;29.74;30.71
65384;BME280;51986;52.788;41.368;2022-08-30T08:13:18;98987.66;;;29.81;30.61
65384;BME280;51986;52.788;41.368;2022-08-30T08:15:46;98991.16;;;29.68;31.00
65384;BME280;51986;52.788;41.368;2022-08-30T08:18:14;98990.38;;;29.60;30.29
65384;BME280;51986;52.788;41.368;2022-08-30T08:20:55;98996.41;;;29.66;30.90
65384;BME280;51986;52.788;41.368;2022-08-30T08:23:22;98997.28;;;29.82;30.32
65384;BME280;51986;52.788;41.368;2022-08-30T08:25:49;98966.91;;;29.70;30.32
65384;BME280;51986;52.788;41.368;2022-08-30T08:28:17;98972.88;;;29.48;30.49
65384;BME280;51986;52.788;41.368;2022-08-30T08:30:45;99000.63;;;29.54;30.86
65384;BME280;51986;52.788;41.368;2022-08-30T08:33:14;98997.88;;;29.88;30.41
65384;BME280;51986;52.788;41.368;2022-08-30T08:35:41;98990.78;;;29.85;30.83
65384;BME280;51986;52.788;41.368;2022-08-30T08:38:11;98977.13;;;29.56;31.18
65384;BME280;51986;52.788;41.368;2022-08-30T08:43:17;98995.34;;;29.90;31.23
65384;BME280;51986;52.788;41.368;2022-08-30T08:46:05;98989.97;;;29.98;31.30
65384;BME280;51986;52.788;41.368;2022-08-30T08:48:45;98987.94;;;29.90;31.22
65384;BME280;51986;52.788;41.368;2022-08-30T08:51:31;98992.81;;;30.13;31.46
65384;BME280;51986;52.788;41.368;2022-08-30T08:54:05;98977.16;;;30.06;31.33
65384;BME280;51986;52.788;41.368;2022-08-30T08:56:33;98972.81;;;30.10;30.89
65384;BME280;51986;52.788;41.368;2022-08-30T08:59:06;98983.28;;;29.99;31.42
65384;BME280;51986;52.788;41.368;2022-08-30T09:01:34;98989.47;;;30.07;31.55
65384;BME280;51986;52.788;41.368;2022-08-30T09:04:07;98972.91;;;29.97;31.71
65384;BME280;51986;52.788;41.368;2022-08-30T09:09:12;98960.88;;;30.13;31.72
65384;BME280;51986;52.788;41.368;2022-08-30T09:11:40;98954.25;;;29.94;32.23
65384;BME280;51986;52.788;41.368;2022-08-30T09:14:34;98958.66;;;30.33;31.07
65384;BME280;51986;52.788;41.368;2022-08-30T09:17:05;98963.63;;;30.21;31.18
65384;BME280;51986;52.788;41.368;2022-08-30T09:24:46;98970.56;;;30.22;32.25
65384;BME280;51986;52.788;41.368;2022-08-30T09:27:34;98967.81;;;30.51;31.60
65384;BME280;51986;52.788;41.368;2022-08-30T09:38:08;98959.03;;;30.08;31.45
65384;BME280;51986;52.788;41.368;2022-08-30T09:40:38;98962.56;;;29.96;31.58
65384;BME280;51986;52.788;41.368;2022-08-30T09:45:46;98974.00;;;29.94;32.22
65384;BME280;51986;52.788;41.368;2022-08-30T09:48:31;98944.22;;;30.17;31.78
65384;BME280;51986;52.788;41.368;2022-08-30T09:57:10;98959.19;;;30.31;30.91
65384;BME280;51986;52.788;41.368;2022-08-30T09:59:45;98951.88;;;29.98;30.80
65384;BME280;51986;52.788;41.368;2022-08-30T10:02:30;98948.19;;;30.16;31.21
65384;BME280;51986;52.788;41.368;2022-08-30T10:08:13;98965.75;;;30.07;30.96
65384;BME280;51986;52.788;41.368;2022-08-30T10:11:07;98955.88;;;30.25;30.98
65384;BME280;51986;52.788;41.368;2022-08-30T10:13:46;98959.06;;;30.37;30.63
65384;BME280;51986;52.788;41.368;2022-08-30T10:22:27;98961.78;;;30.37;30.56
65384;BME280;51986;52.788;41.368;2022-08-30T10:25:10;98963.94;;;30.38;30.72
65384;BME280;51986;52.788;41.368;2022-08-30T10:30:43;98961.50;;;30.56;30.18
65384;BME280;51986;52.788;41.368;2022-08-30T10:33:17;98934.59;;;30.45;30.74
65384;BME280;51986;52.788;41.368;2022-08-30T10:35:50;98911.28;;;30.28;30.67
65384;BME280;51986;52.788;41.368;2022-08-30T10:38:31;98947.69;;;30.54;30.66
65384;BME280;51986;52.788;41.368;2022-08-30T10:44:19;98941.00;;;30.62;29.63
65384;BME280;51986;52.788;41.368;2022-08-30T10:49:43;98967.00;;;30.79;30.01
65384;BME280;51986;52.788;41.368;2022-08-30T10:57:17;98931.72;;;30.58;30.13
65384;BME280;51986;52.788;41.368;2022-08-30T11:08:52;98922.00;;;30.70;29.28
65384;BME280;51986;52.788;41.368;2022-08-30T11:11:18;98941.22;;;30.72;28.82
65384;BME280;51986;52.788;41.368;2022-08-30T11:13:48;98930.06;;;30.99;28.55
65384;BME280;51986;52.788;41.368;2022-08-30T11:16:33;98927.53;;;31.16;27.67
65384;BME280;51986;52.788;41.368;2022-08-30T11:19:01;98920.50;;;30.61;29.03
65384;BME280;51986;52.788;41.368;2022-08-30T11:21:35;98919.97;;;30.63;28.87
65384;BME280;51986;52.788;41.368;2022-08-30T11:24:12;98892.22;;;30.72;28.02
65384;BME280;51986;52.788;41.368;2022-08-30T11:31:54;98909.91;;;30.94;27.79
65384;BME280;51986;52.788;41.368;2022-08-30T11:37:38;98922.97;;;30.96;28.10
65384;BME280;51986;52.788;41.368;2022-08-30T11:42:49;98926.78;;;30.92;28.04
65384;BME280;51986;52.788;41.368;2022-08-30T11:48:04;98923.09;;;30.75;27.82
65384;BME280;51986;52.788;41.368;2022-08-30T11:56:12;98896.19;;;30.56;28.03
65384;BME280;51986;52.788;41.368;2022-08-30T11:59:27;98907.47;;;30.75;28.12
65384;BME280;51986;52.788;41.368;2022-08-30T12:01:57;98908.97;;;30.32;28.92
65384;BME280;51986;52.788;41.368;2022-08-30T12:04:30;98888.88;;;30.43;28.95
65384;BME280;51986;52.788;41.368;2022-08-30T12:07:05;98889.47;;;30.64;28.89
65384;BME280;51986;52.788;41.368;2022-08-30T12:14:41;98888.28;;;30.88;28.63
65384;BME280;51986;52.788;41.368;2022-08-30T12:17:16;98888.66;;;30.92;27.94
65384;BME280;51986;52.788;41.368;2022-08-30T12:19:51;98888.84;;;30.95;27.97
65384;BME280;51986;52.788;41.368;2022-08-30T12:22:18;98893.66;;;30.73;27.73
65384;BME280;51986;52.788;41.368;2022-08-30T12:24:49;98905.31;;;30.81;27.26
65384;BME280;51986;52.788;41.368;2022-08-30T12:27:28;98868.16;;;31.07;27.29
65384;BME280;51986;52.788;41.368;2022-08-30T12:30:06;98890.13;;;31.16;27.63
65384;BME280;51986;52.788;41.368;2022-08-30T12:32:46;98895.38;;;31.07;27.30
65384;BME280;51986;52.788;41.368;2022-08-30T12:35:20;98876.88;;;31.05;27.88
65384;BME280;51986;52.788;41.368;2022-08-30T12:38:00;98883.25;;;31.38;27.50
65384;BME280;51986;52.788;41.368;2022-08-30T12:40:28;98890.69;;;31.46;27.42
65384;BME280;51986;52.788;41.368;2022-08-30T12:42:57;98856.53;;;30.99;27.10
65384;BME280;51986;52.788;41.368;2022-08-30T12:45:37;98875.97;;;31.18;25.92
65384;BME280;51986;52.788;41.368;2022-08-30T12:48:11;98886.50;;;31.14;26.02
65384;BME280;51986;52.788;41.368;2022-08-30T12:51:04;98876.69;;;31.11;26.20
65384;BME280;51986;52.788;41.368;2022-08-30T12:53:40;98867.63;;;31.16;26.06
65384;BME280;51986;52.788;41.368;2022-08-30T12:56:15;98867.63;;;31.16;26.63
65384;BME280;51986;52.788;41.368;2022-08-30T12:59:00;98881.38;;;30.87;26.82
65384;BME280;51986;52.788;41.368;2022-08-30T13:01:34;98857.38;;;30.78;26.41
65384;BME280;51986;52.788;41.368;2022-08-30T13:04:13;98873.06;;;31.08;26.54
65384;BME280;51986;52.788;41.368;2022-08-30T13:06:48;98917.00;;;31.05;26.76
65384;BME280;51986;52.788;41.368;2022-08-30T13:09:39;98846.91;;;30.98;26.65
65384;BME280;51986;52.788;41.368;2022-08-30T13:12:25;98850.72;;;30.95;26.49
65384;BME280;51986;52.788;41.368;2022-08-30T13:15:17;98862.34;;;31.03;26.74
65384;BME280;51986;52.788;41.368;2022-08-30T13:23:46;98829.66;;;30.95;26.98
65384;BME280;51986;52.788;41.368;2022-08-30T13:26:15;98851.03;;;30.83;27.48
65384;BME280;51986;52.788;41.368;2022-08-30T13:29:01;98868.63;;;30.82;26.71
65384;BME280;51986;52.788;41.368;2022-08-30T13:31:32;98850.47;;;30.62;27.68
65384;BME280;51986;52.788;41.368;2022-08-30T13:34:01;98845.38;;;30.58;27.47
65384;BME280;51986;52.788;41.368;2022-08-30T13:39:27;98834.72;;;30.24;28.52
65384;BME280;51986;52.788;41.368;2022-08-30T13:41:55;98843.94;;;30.13;27.69
65384;BME280;51986;52.788;41.368;2022-08-30T13:44:42;98846.22;;;30.02;27.85
65384;BME280;51986;52.788;41.368;2022-08-30T13:47:14;98853.81;;;29.96;28.28
65384;BME280;51986;52.788;41.368;2022-08-30T13:50:04;98824.56;;;29.81;28.82
65384;BME280;51986;52.788;41.368;2022-08-30T13:52:38;98864.25;;;30.12;28.22
65384;BME280;51986;52.788;41.368;2022-08-30T13:55:06;98812.84;;;29.94;29.13
65384;BME280;51986;52.788;41.368;2022-08-30T13:57:33;98819.13;;;29.81;29.71
65384;BME280;51986;52.788;41.368;2022-08-30T14:00:24;98845.66;;;29.67;29.57
65384;BME280;51986;52.788;41.368;2022-08-30T14:02:52;98846.38;;;29.67;29.39
65384;BME280;51986;52.788;41.368;2022-08-30T14:05:32;98853.38;;;29.55;29.71
65384;BME280;51986;52.788;41.368;2022-08-30T14:08:26;98856.47;;;29.59;29.95
65384;BME280;51986;52.788;41.368;2022-08-30T14:11:17;98854.59;;;29.47;30.59
65384;BME280;51986;52.788;41.368;2022-08-30T14:13:47;98838.22;;;29.39;30.56
65384;BME280;51986;52.788;41.368;2022-08-30T14:16:40;98846.91;;;29.37;31.02
65384;BME280;51986;52.788;41.368;2022-08-30T14:19:08;98845.59;;;29.31;31.02
65384;BME280;51986;52.788;41.368;2022-08-30T14:21:36;98813.25;;;29.20;31.35
65384;BME280;51986;52.788;41.368;2022-08-30T14:24:14;98845.19;;;29.06;31.27
65384;BME280;51986;52.788;41.368;2022-08-30T14:26:51;98833.06;;;29.07;31.55
65384;BME280;51986;52.788;41.368;2022-08-30T14:29:21;98848.44;;;29.04;31.33
65384;BME280;51986;52.788;41.368;2022-08-30T14:31:50;98815.25;;;28.98;31.80
65384;BME280;51986;52.788;41.368;2022-08-30T14:34:18;98837.38;;;29.02;31.74
65384;BME280;51986;52.788;41.368;2022-08-30T14:36:48;98832.28;;;28.99;31.72
65384;BME280;51986;52.788;41.368;2022-08-30T14:39:18;98789.94;;;28.82;32.01
65384;BME280;51986;52.788;41.368;2022-08-30T14:41:49;98832.81;;;28.97;32.25
65384;BME280;51986;52.788;41.368;2022-08-30T14:44:18;98837.88;;;29.01;32.60
65384;BME280;51986;52.788;41.368;2022-08-30T14:46:48;98828.22;;;28.92;32.89
65384;BME280;51986;52.788;41.368;2022-08-30T14:49:17;98845.91;;;28.85;32.47